sensor_id;sensor_type;location;lat;lon;timestamp;P1;durP1;ratioP1;P2;durP2;ratioP2
22129;SDS011;11231;50.746;4.272;2024-01-15T00:01:49;45.40;;;18.40;;
22129;SDS011;11231;50.746;4.272;2024-01-15T00:04:15;49.57;;;18.90;;
22129;SDS011;11231;50.746;4.272;2024-01-15T00:06:41;43.53;;;17.60;;
22129;SDS011;11231;50.746;4.272;2024-01-15T00:09:06;43.93;;;17.17;;
22129;SDS011;11231;50.746;4.272;2024-01-15T00:11:32;45.63;;;17.83;;
22129;SDS011;11231;50.746;4.272;2024-01-15T00:13:58;42.90;;;17.03;;
22129;SDS011;11231;50.746;4.272;2024-01-15T00:16:24;41.80;;;16.63;;
22129;SDS011;11231;50.746;4.272;2024-01-15T00:18:50;34.37;;;15.07;;
22129;SDS011;11231;50.746;4.272;2024-01-15T00:21:15;34.40;;;14.03;;
22129;SDS011;11231;50.746;4.272;2024-01-15T00:23:44;31.10;;;13.47;;
22129;SDS011;11231;50.746;4.272;2024-01-15T00:26:10;33.50;;;13.33;;
22129;SDS011;11231;50.746;4.272;2024-01-15T00:28:36;29.10;;;12.30;;
22129;SDS011;11231;50.746;4.272;2024-01-15T00:31:03;31.67;;;12.57;;
22129;SDS011;11231;50.746;4.272;2024-01-15T00:33:31;26.83;;;12.53;;
22129;SDS011;11231;50.746;4.272;2024-01-15T00:35:57;27.07;;;11.67;;
22129;SDS011;11231;50.746;4.272;2024-01-15T00:38:23;33.07;;;12.83;;
22129;SDS011;11231;50.746;4.272;2024-01-15T00:40:50;29.80;;;13.20;;
22129;SDS011;11231;50.746;4.272;2024-01-15T00:43:15;28.33;;;13.40;;
22129;SDS011;11231;50.746;4.272;2024-01-15T00:45:43;31.23;;;13.67;;
22129;SDS011;11231;50.746;4.272;2024-01-15T00:48:09;31.60;;;13.87;;
22129;SDS011;11231;50.746;4.272;2024-01-15T00:50:35;36.73;;;15.20;;
22129;SDS011;11231;50.746;4.272;2024-01-15T00:53:01;34.87;;;15.13;;
22129;SDS011;11231;50.746;4.272;2024-01-15T00:55:28;37.83;;;16.43;;
22129;SDS011;11231;50.746;4.272;2024-01-15T00:57:54;32.43;;;14.43;;
22129;SDS011;11231;50.746;4.272;2024-01-15T01:00:20;34.20;;;15.33;;
22129;SDS011;11231;50.746;4.272;2024-01-15T01:02:46;34.73;;;15.27;;
22129;SDS011;11231;50.746;4.272;2024-01-15T01:05:12;34.30;;;15.47;;
22129;SDS011;11231;50.746;4.272;2024-01-15T01:07:38;39.97;;;16.00;;
22129;SDS011;11231;50.746;4.272;2024-01-15T01:10:04;38.63;;;16.63;;
22129;SDS011;11231;50.746;4.272;2024-01-15T01:12:30;36.13;;;15.63;;
22129;SDS011;11231;50.746;4.272;2024-01-15T01:14:56;34.50;;;15.40;;
22129;SDS011;11231;50.746;4.272;2024-01-15T01:17:22;33.17;;;15.53;;
22129;SDS011;11231;50.746;4.272;2024-01-15T01:19:47;34.30;;;15.20;;
22129;SDS011;11231;50.746;4.272;2024-01-15T01:22:14;34.73;;;14.80;;
22129;SDS011;11231;50.746;4.272;2024-01-15T01:24:40;36.37;;;14.67;;
22129;SDS011;11231;50.746;4.272;2024-01-15T01:27:06;33.77;;;15.10;;
22129;SDS011;11231;50.746;4.272;2024-01-15T01:29:32;32.27;;;13.80;;
22129;SDS011;11231;50.746;4.272;2024-01-15T01:31:57;34.30;;;13.20;;
22129;SDS011;11231;50.746;4.272;2024-01-15T01:34:23;31.03;;;12.53;;
22129;SDS011;11231;50.746;4.272;2024-01-15T01:36:49;29.63;;;12.30;;
22129;SDS011;11231;50.746;4.272;2024-01-15T01:39:15;29.50;;;12.97;;
22129;SDS011;11231;50.746;4.272;2024-01-15T01:41:42;30.27;;;12.20;;
22129;SDS011;11231;50.746;4.272;2024-01-15T01:44:07;28.20;;;12.57;;
22129;SDS011;11231;50.746;4.272;2024-01-15T01:46:33;29.47;;;12.30;;
22129;SDS011;11231;50.746;4.272;2024-01-15T01:49:04;32.70;;;12.40;;
22129;SDS011;11231;50.746;4.272;2024-01-15T01:51:31;28.03;;;12.00;;
22129;SDS011;11231;50.746;4.272;2024-01-15T01:53:58;24.70;;;11.37;;
22129;SDS011;11231;50.746;4.272;2024-01-15T01:56:25;27.73;;;11.57;;
22129;SDS011;11231;50.746;4.272;2024-01-15T01:58:51;28.50;;;12.30;;
22129;SDS011;11231;50.746;4.272;2024-01-15T02:01:17;27.70;;;12.80;;
22129;SDS011;11231;50.746;4.272;2024-01-15T02:03:44;28.77;;;13.20;;
22129;SDS011;11231;50.746;4.272;2024-01-15T02:06:10;27.70;;;13.20;;
22129;SDS011;11231;50.746;4.272;2024-01-15T02:08:36;29.83;;;12.77;;
22129;SDS011;11231;50.746;4.272;2024-01-15T02:11:02;26.53;;;12.53;;
22129;SDS011;11231;50.746;4.272;2024-01-15T02:13:28;27.17;;;13.10;;
22129;SDS011;11231;50.746;4.272;2024-01-15T02:15:55;29.00;;;12.83;;
22129;SDS011;11231;50.746;4.272;2024-01-15T02:18:20;36.80;;;14.70;;
22129;SDS011;11231;50.746;4.272;2024-01-15T02:20:46;31.50;;;14.27;;
22129;SDS011;11231;50.746;4.272;2024-01-15T02:23:13;40.00;;;15.20;;
22129;SDS011;11231;50.746;4.272;2024-01-15T02:25:40;32.73;;;13.57;;
22129;SDS011;11231;50.746;4.272;2024-01-15T02:28:11;28.83;;;13.43;;
22129;SDS011;11231;50.746;4.272;2024-01-15T02:30:38;33.03;;;13.80;;
22129;SDS011;11231;50.746;4.272;2024-01-15T02:33:06;34.97;;;14.60;;
22129;SDS011;11231;50.746;4.272;2024-01-15T02:35:35;38.13;;;15.57;;
22129;SDS011;11231;50.746;4.272;2024-01-15T02:38:01;35.33;;;14.83;;
22129;SDS011;11231;50.746;4.272;2024-01-15T02:40:29;35.57;;;16.10;;
22129;SDS011;11231;50.746;4.272;2024-01-15T02:42:55;34.40;;;15.40;;
22129;SDS011;11231;50.746;4.272;2024-01-15T02:45:21;36.77;;;15.87;;
22129;SDS011;11231;50.746;4.272;2024-01-15T02:47:47;36.43;;;16.17;;
22129;SDS011;11231;50.746;4.272;2024-01-15T02:50:13;33.60;;;15.73;;
22129;SDS011;11231;50.746;4.272;2024-01-15T02:52:39;40.33;;;17.17;;
22129;SDS011;11231;50.746;4.272;2024-01-15T02:55:05;42.27;;;17.83;;
22129;SDS011;11231;50.746;4.272;2024-01-15T02:57:31;44.93;;;18.03;;
22129;SDS011;11231;50.746;4.272;2024-01-15T02:59:57;43.47;;;19.13;;
22129;SDS011;11231;50.746;4.272;2024-01-15T03:02:22;43.40;;;20.50;;
22129;SDS011;11231;50.746;4.272;2024-01-15T03:04:48;42.27;;;18.03;;
22129;SDS011;11231;50.746;4.272;2024-01-15T03:07:14;38.87;;;18.53;;
22129;SDS011;11231;50.746;4.272;2024-01-15T03:09:40;46.37;;;19.37;;
22129;SDS011;11231;50.746;4.272;2024-01-15T03:12:06;44.27;;;20.03;;
22129;SDS011;11231;50.746;4.272;2024-01-15T03:14:32;41.23;;;19.20;;
22129;SDS011;11231;50.746;4.272;2024-01-15T03:16:57;44.17;;;19.57;;
22129;SDS011;11231;50.746;4.272;2024-01-15T03:19:23;42.77;;;18.47;;
22129;SDS011;11231;50.746;4.272;2024-01-15T03:21:49;42.23;;;18.37;;
22129;SDS011;11231;50.746;4.272;2024-01-15T03:24:15;41.30;;;19.17;;
22129;SDS011;11231;50.746;4.272;2024-01-15T03:26:40;44.80;;;19.83;;
22129;SDS011;11231;50.746;4.272;2024-01-15T03:29:06;46.07;;;19.97;;
22129;SDS011;11231;50.746;4.272;2024-01-15T03:31:33;44.70;;;20.57;;
22129;SDS011;11231;50.746;4.272;2024-01-15T03:33:58;44.40;;;19.57;;
22129;SDS011;11231;50.746;4.272;2024-01-15T03:36:24;43.60;;;19.10;;
22129;SDS011;11231;50.746;4.272;2024-01-15T03:38:50;43.63;;;20.27;;
22129;SDS011;11231;50.746;4.272;2024-01-15T03:41:15;43.67;;;19.97;;
22129;SDS011;11231;50.746;4.272;2024-01-15T03:43:41;46.83;;;20.87;;
22129;SDS011;11231;50.746;4.272;2024-01-15T03:46:07;45.37;;;19.87;;
22129;SDS011;11231;50.746;4.272;2024-01-15T03:48:33;43.43;;;19.43;;
22129;SDS011;11231;50.746;4.272;2024-01-15T03:50:58;48.67;;;21.37;;
22129;SDS011;11231;50.746;4.272;2024-01-15T03:53:24;49.93;;;21.07;;
22129;SDS011;11231;50.746;4.272;2024-01-15T03:55:50;49.33;;;20.90;;
22129;SDS011;11231;50.746;4.272;2024-01-15T03:58:17;47.40;;;22.43;;
22129;SDS011;11231;50.746;4.272;2024-01-15T04:00:44;45.20;;;21.50;;
22129;SDS011;11231;50.746;4.272;2024-01-15T04:03:09;45.27;;;20.73;;
22129;SDS011;11231;50.746;4.272;2024-01-15T04:05:35;44.60;;;20.03;;
22129;SDS011;11231;50.746;4.272;2024-01-15T04:08:01;46.37;;;20.50;;
22129;SDS011;11231;50.746;4.272;2024-01-15T04:10:26;44.33;;;19.93;;
22129;SDS011;11231;50.746;4.272;2024-01-15T04:12:52;46.50;;;20.43;;
22129;SDS011;11231;50.746;4.272;2024-01-15T04:15:18;43.60;;;20.23;;
22129;SDS011;11231;50.746;4.272;2024-01-15T04:17:43;42.90;;;18.50;;
22129;SDS011;11231;50.746;4.272;2024-01-15T04:20:09;42.57;;;18.77;;
22129;SDS011;11231;50.746;4.272;2024-01-15T04:22:36;43.07;;;18.73;;
22129;SDS011;11231;50.746;4.272;2024-01-15T04:25:03;42.93;;;17.93;;
22129;SDS011;11231;50.746;4.272;2024-01-15T04:27:29;39.73;;;18.17;;
22129;SDS011;11231;50.746;4.272;2024-01-15T04:29:55;38.00;;;16.77;;
22129;SDS011;11231;50.746;4.272;2024-01-15T04:32:20;37.90;;;17.50;;
22129;SDS011;11231;50.746;4.272;2024-01-15T04:34:46;34.47;;;15.07;;
22129;SDS011;11231;50.746;4.272;2024-01-15T04:37:13;33.27;;;14.93;;
22129;SDS011;11231;50.746;4.272;2024-01-15T04:39:39;30.40;;;13.70;;
22129;SDS011;11231;50.746;4.272;2024-01-15T04:42:04;28.80;;;11.97;;
22129;SDS011;11231;50.746;4.272;2024-01-15T04:44:30;25.20;;;12.30;;
22129;SDS011;11231;50.746;4.272;2024-01-15T04:46:56;25.77;;;11.23;;
22129;SDS011;11231;50.746;4.272;2024-01-15T04:49:22;25.43;;;11.93;;
22129;SDS011;11231;50.746;4.272;2024-01-15T04:51:47;26.80;;;12.10;;
22129;SDS011;11231;50.746;4.272;2024-01-15T04:54:13;24.60;;;11.43;;
22129;SDS011;11231;50.746;4.272;2024-01-15T04:56:43;27.23;;;11.80;;
22129;SDS011;11231;50.746;4.272;2024-01-15T04:59:09;28.33;;;11.73;;
22129;SDS011;11231;50.746;4.272;2024-01-15T05:01:35;24.40;;;12.03;;
22129;SDS011;11231;50.746;4.272;2024-01-15T05:04:01;28.40;;;12.70;;
22129;SDS011;11231;50.746;4.272;2024-01-15T05:06:27;28.03;;;12.87;;
22129;SDS011;11231;50.746;4.272;2024-01-15T05:08:53;31.53;;;13.97;;
22129;SDS011;11231;50.746;4.272;2024-01-15T05:11:19;35.77;;;15.33;;
22129;SDS011;11231;50.746;4.272;2024-01-15T05:13:44;30.00;;;14.73;;
22129;SDS011;11231;50.746;4.272;2024-01-15T05:16:10;30.83;;;15.30;;
22129;SDS011;11231;50.746;4.272;2024-01-15T05:18:36;35.40;;;16.87;;
22129;SDS011;11231;50.746;4.272;2024-01-15T05:21:04;36.40;;;17.10;;
22129;SDS011;11231;50.746;4.272;2024-01-15T05:23:33;34.03;;;16.87;;
22129;SDS011;11231;50.746;4.272;2024-01-15T05:26:00;34.70;;;17.87;;
22129;SDS011;11231;50.746;4.272;2024-01-15T05:28:25;36.50;;;18.80;;
22129;SDS011;11231;50.746;4.272;2024-01-15T05:30:51;34.97;;;17.27;;
22129;SDS011;11231;50.746;4.272;2024-01-15T05:33:17;39.13;;;17.00;;
22129;SDS011;11231;50.746;4.272;2024-01-15T05:35:43;37.30;;;17.73;;
22129;SDS011;11231;50.746;4.272;2024-01-15T05:38:09;33.83;;;18.37;;
22129;SDS011;11231;50.746;4.272;2024-01-15T05:40:35;38.43;;;19.10;;
22129;SDS011;11231;50.746;4.272;2024-01-15T05:43:00;38.23;;;18.20;;
22129;SDS011;11231;50.746;4.272;2024-01-15T05:45:26;37.23;;;17.97;;
22129;SDS011;11231;50.746;4.272;2024-01-15T05:47:52;31.67;;;17.33;;
22129;SDS011;11231;50.746;4.272;2024-01-15T05:50:18;33.17;;;17.23;;
22129;SDS011;11231;50.746;4.272;2024-01-15T05:52:43;33.67;;;16.37;;
22129;SDS011;11231;50.746;4.272;2024-01-15T05:55:10;32.80;;;16.40;;
22129;SDS011;11231;50.746;4.272;2024-01-15T05:57:36;33.90;;;17.23;;
22129;SDS011;11231;50.746;4.272;2024-01-15T06:00:03;35.17;;;18.27;;
22129;SDS011;11231;50.746;4.272;2024-01-15T06:02:31;29.50;;;15.47;;
22129;SDS011;11231;50.746;4.272;2024-01-15T06:04:56;30.73;;;15.77;;
22129;SDS011;11231;50.746;4.272;2024-01-15T06:07:22;29.13;;;15.57;;
22129;SDS011;11231;50.746;4.272;2024-01-15T06:09:48;27.40;;;15.03;;
22129;SDS011;11231;50.746;4.272;2024-01-15T06:12:14;27.57;;;15.17;;
22129;SDS011;11231;50.746;4.272;2024-01-15T06:14:40;33.17;;;15.00;;
22129;SDS011;11231;50.746;4.272;2024-01-15T06:17:06;31.77;;;15.70;;
22129;SDS011;11231;50.746;4.272;2024-01-15T06:19:32;31.23;;;16.03;;
22129;SDS011;11231;50.746;4.272;2024-01-15T06:21:58;34.97;;;18.70;;
22129;SDS011;11231;50.746;4.272;2024-01-15T06:24:23;33.90;;;17.13;;
22129;SDS011;11231;50.746;4.272;2024-01-15T06:26:49;29.50;;;16.47;;
22129;SDS011;11231;50.746;4.272;2024-01-15T06:29:16;29.63;;;17.63;;
22129;SDS011;11231;50.746;4.272;2024-01-15T06:31:41;34.87;;;18.40;;
22129;SDS011;11231;50.746;4.272;2024-01-15T06:34:08;34.17;;;18.50;;
22129;SDS011;11231;50.746;4.272;2024-01-15T06:36:34;35.03;;;16.87;;
22129;SDS011;11231;50.746;4.272;2024-01-15T06:39:00;29.83;;;15.93;;
22129;SDS011;11231;50.746;4.272;2024-01-15T06:41:25;29.83;;;15.30;;
22129;SDS011;11231;50.746;4.272;2024-01-15T06:43:51;26.07;;;13.20;;
22129;SDS011;11231;50.746;4.272;2024-01-15T06:46:23;22.53;;;13.17;;
22129;SDS011;11231;50.746;4.272;2024-01-15T06:48:49;22.23;;;11.97;;
22129;SDS011;11231;50.746;4.272;2024-01-15T06:51:15;20.57;;;9.53;;
22129;SDS011;11231;50.746;4.272;2024-01-15T06:53:41;18.00;;;9.60;;
22129;SDS011;11231;50.746;4.272;2024-01-15T06:56:06;20.10;;;9.20;;
22129;SDS011;11231;50.746;4.272;2024-01-15T06:58:33;17.07;;;8.83;;
22129;SDS011;11231;50.746;4.272;2024-01-15T07:00:59;18.10;;;8.57;;
22129;SDS011;11231;50.746;4.272;2024-01-15T07:03:25;19.33;;;8.80;;
22129;SDS011;11231;50.746;4.272;2024-01-15T07:05:53;20.13;;;8.90;;
22129;SDS011;11231;50.746;4.272;2024-01-15T07:08:19;19.83;;;8.57;;
22129;SDS011;11231;50.746;4.272;2024-01-15T07:10:44;17.83;;;8.50;;
22129;SDS011;11231;50.746;4.272;2024-01-15T07:13:10;22.07;;;10.13;;
22129;SDS011;11231;50.746;4.272;2024-01-15T07:15:36;25.00;;;11.57;;
22129;SDS011;11231;50.746;4.272;2024-01-15T07:18:03;25.40;;;12.33;;
22129;SDS011;11231;50.746;4.272;2024-01-15T07:20:28;25.37;;;12.63;;
22129;SDS011;11231;50.746;4.272;2024-01-15T07:22:54;28.13;;;13.57;;
22129;SDS011;11231;50.746;4.272;2024-01-15T07:25:20;26.30;;;12.87;;
22129;SDS011;11231;50.746;4.272;2024-01-15T07:27:46;27.77;;;13.80;;
22129;SDS011;11231;50.746;4.272;2024-01-15T07:30:13;24.33;;;12.97;;
22129;SDS011;11231;50.746;4.272;2024-01-15T07:32:38;22.03;;;10.70;;
22129;SDS011;11231;50.746;4.272;2024-01-15T07:35:06;25.20;;;11.20;;
22129;SDS011;11231;50.746;4.272;2024-01-15T07:37:31;22.87;;;9.60;;
22129;SDS011;11231;50.746;4.272;2024-01-15T07:39:58;23.73;;;9.60;;
22129;SDS011;11231;50.746;4.272;2024-01-15T07:42:25;22.70;;;8.40;;
22129;SDS011;11231;50.746;4.272;2024-01-15T07:44:51;17.63;;;8.20;;
22129;SDS011;11231;50.746;4.272;2024-01-15T07:47:17;16.97;;;7.50;;
22129;SDS011;11231;50.746;4.272;2024-01-15T07:49:42;18.43;;;7.10;;
22129;SDS011;11231;50.746;4.272;2024-01-15T07:52:09;15.03;;;6.67;;
22129;SDS011;11231;50.746;4.272;2024-01-15T07:54:35;17.20;;;5.90;;
22129;SDS011;11231;50.746;4.272;2024-01-15T07:57:01;16.97;;;5.70;;
22129;SDS011;11231;50.746;4.272;2024-01-15T07:59:31;15.63;;;6.30;;
22129;SDS011;11231;50.746;4.272;2024-01-15T08:01:58;15.23;;;6.00;;
22129;SDS011;11231;50.746;4.272;2024-01-15T08:04:24;16.47;;;5.43;;
22129;SDS011;11231;50.746;4.272;2024-01-15T08:06:50;15.73;;;5.37;;
22129;SDS011;11231;50.746;4.272;2024-01-15T08:09:16;17.17;;;5.27;;
22129;SDS011;11231;50.746;4.272;2024-01-15T08:11:42;14.73;;;4.67;;
22129;SDS011;11231;50.746;4.272;2024-01-15T08:14:08;15.43;;;4.57;;
22129;SDS011;11231;50.746;4.272;2024-01-15T08:16:35;11.73;;;4.07;;
22129;SDS011;11231;50.746;4.272;2024-01-15T08:19:02;19.60;;;4.27;;
22129;SDS011;11231;50.746;4.272;2024-01-15T08:21:27;13.13;;;3.93;;
22129;SDS011;11231;50.746;4.272;2024-01-15T08:23:56;14.03;;;3.90;;
22129;SDS011;11231;50.746;4.272;2024-01-15T08:26:25;15.77;;;4.00;;
22129;SDS011;11231;50.746;4.272;2024-01-15T08:28:51;17.47;;;4.07;;
22129;SDS011;11231;50.746;4.272;2024-01-15T08:31:17;15.33;;;3.97;;
22129;SDS011;11231;50.746;4.272;2024-01-15T08:33:43;14.37;;;4.07;;
22129;SDS011;11231;50.746;4.272;2024-01-15T08:36:09;12.63;;;3.30;;
22129;SDS011;11231;50.746;4.272;2024-01-15T08:38:35;16.30;;;3.80;;
22129;SDS011;11231;50.746;4.272;2024-01-15T08:41:01;12.33;;;3.60;;
22129;SDS011;11231;50.746;4.272;2024-01-15T08:43:27;11.20;;;2.90;;
22129;SDS011;11231;50.746;4.272;2024-01-15T08:45:53;8.37;;;2.60;;
22129;SDS011;11231;50.746;4.272;2024-01-15T08:48:19;15.50;;;2.97;;
22129;SDS011;11231;50.746;4.272;2024-01-15T08:50:44;12.07;;;2.87;;
22129;SDS011;11231;50.746;4.272;2024-01-15T08:53:13;17.13;;;3.17;;
22129;SDS011;11231;50.746;4.272;2024-01-15T08:55:39;9.43;;;2.73;;
22129;SDS011;11231;50.746;4.272;2024-01-15T08:58:05;11.10;;;2.93;;
22129;SDS011;11231;50.746;4.272;2024-01-15T09:00:31;16.97;;;2.97;;
22129;SDS011;11231;50.746;4.272;2024-01-15T09:02:57;10.60;;;2.50;;
22129;SDS011;11231;50.746;4.272;2024-01-15T09:05:22;9.17;;;2.50;;
22129;SDS011;11231;50.746;4.272;2024-01-15T09:07:48;11.83;;;2.50;;
22129;SDS011;11231;50.746;4.272;2024-01-15T09:10:16;14.77;;;2.77;;
22129;SDS011;11231;50.746;4.272;2024-01-15T09:12:42;12.33;;;2.73;;
22129;SDS011;11231;50.746;4.272;2024-01-15T09:15:08;10.27;;;2.40;;
22129;SDS011;11231;50.746;4.272;2024-01-15T09:17:33;11.07;;;2.80;;
22129;SDS011;11231;50.746;4.272;2024-01-15T09:19:59;11.67;;;2.47;;
22129;SDS011;11231;50.746;4.272;2024-01-15T09:22:26;11.77;;;2.30;;
22129;SDS011;11231;50.746;4.272;2024-01-15T09:24:52;7.73;;;2.17;;
22129;SDS011;11231;50.746;4.272;2024-01-15T09:27:17;12.23;;;2.47;;
22129;SDS011;11231;50.746;4.272;2024-01-15T09:29:43;12.70;;;2.40;;
22129;SDS011;11231;50.746;4.272;2024-01-15T09:32:11;11.87;;;2.57;;
22129;SDS011;11231;50.746;4.272;2024-01-15T09:34:37;14.93;;;3.10;;
22129;SDS011;11231;50.746;4.272;2024-01-15T09:37:04;12.10;;;2.50;;
22129;SDS011;11231;50.746;4.272;2024-01-15T09:39:30;10.73;;;2.30;;
22129;SDS011;11231;50.746;4.272;2024-01-15T09:41:57;9.30;;;2.50;;
22129;SDS011;11231;50.746;4.272;2024-01-15T09:44:23;9.73;;;2.43;;
22129;SDS011;11231;50.746;4.272;2024-01-15T09:46:49;11.73;;;2.23;;
22129;SDS011;11231;50.746;4.272;2024-01-15T09:49:17;9.77;;;2.50;;
22129;SDS011;11231;50.746;4.272;2024-01-15T09:51:43;10.17;;;2.30;;
22129;SDS011;11231;50.746;4.272;2024-01-15T09:54:09;8.90;;;2.13;;
22129;SDS011;11231;50.746;4.272;2024-01-15T09:56:35;8.97;;;2.07;;
22129;SDS011;11231;50.746;4.272;2024-01-15T09:59:01;11.77;;;2.13;;
22129;SDS011;11231;50.746;4.272;2024-01-15T10:01:29;11.33;;;2.43;;
22129;SDS011;11231;50.746;4.272;2024-01-15T10:03:57;11.20;;;2.20;;
22129;SDS011;11231;50.746;4.272;2024-01-15T10:06:23;8.37;;;2.10;;
22129;SDS011;11231;50.746;4.272;2024-01-15T10:08:53;9.20;;;1.97;;
22129;SDS011;11231;50.746;4.272;2024-01-15T10:11:21;9.30;;;2.20;;
22129;SDS011;11231;50.746;4.272;2024-01-15T10:13:47;9.10;;;2.27;;
22129;SDS011;11231;50.746;4.272;2024-01-15T10:16:17;10.23;;;2.30;;
22129;SDS011;11231;50.746;4.272;2024-01-15T10:18:42;8.47;;;1.70;;
22129;SDS011;11231;50.746;4.272;2024-01-15T10:21:09;9.13;;;1.90;;
22129;SDS011;11231;50.746;4.272;2024-01-15T10:23:34;12.27;;;2.60;;
22129;SDS011;11231;50.746;4.272;2024-01-15T10:26:01;8.53;;;3.00;;
22129;SDS011;11231;50.746;4.272;2024-01-15T10:28:28;8.07;;;2.30;;
22129;SDS011;11231;50.746;4.272;2024-01-15T10:30:56;6.13;;;1.83;;
22129;SDS011;11231;50.746;4.272;2024-01-15T10:33:24;7.57;;;1.77;;
22129;SDS011;11231;50.746;4.272;2024-01-15T10:35:54;9.80;;;2.00;;
22129;SDS011;11231;50.746;4.272;2024-01-15T10:38:21;8.27;;;2.07;;
22129;SDS011;11231;50.746;4.272;2024-01-15T10:40:50;11.40;;;2.10;;
22129;SDS011;11231;50.746;4.272;2024-01-15T10:43:17;7.77;;;2.10;;
22129;SDS011;11231;50.746;4.272;2024-01-15T10:45:44;13.83;;;1.97;;
22129;SDS011;11231;50.746;4.272;2024-01-15T10:48:10;7.63;;;1.87;;
22129;SDS011;11231;50.746;4.272;2024-01-15T10:50:37;11.33;;;2.10;;
22129;SDS011;11231;50.746;4.272;2024-01-15T10:53:03;8.10;;;2.00;;
22129;SDS011;11231;50.746;4.272;2024-01-15T10:55:30;9.97;;;2.17;;
22129;SDS011;11231;50.746;4.272;2024-01-15T10:57:58;11.90;;;1.77;;
22129;SDS011;11231;50.746;4.272;2024-01-15T11:00:24;7.73;;;1.67;;
22129;SDS011;11231;50.746;4.272;2024-01-15T11:02:50;6.27;;;1.90;;
22129;SDS011;11231;50.746;4.272;2024-01-15T11:05:18;8.53;;;1.63;;
22129;SDS011;11231;50.746;4.272;2024-01-15T11:07:47;9.47;;;1.60;;
22129;SDS011;11231;50.746;4.272;2024-01-15T11:13:53;7.50;;;1.63;;
22129;SDS011;11231;50.746;4.272;2024-01-15T11:18:29;7.73;;;1.83;;
22129;SDS011;11231;50.746;4.272;2024-01-15T11:26:29;16.47;;;4.40;;
22129;SDS011;11231;50.746;4.272;2024-01-15T11:29:05;9.80;;;3.20;;
22129;SDS011;11231;50.746;4.272;2024-01-15T11:34:05;9.87;;;2.00;;
22129;SDS011;11231;50.746;4.272;2024-01-15T11:42:00;28.53;;;11.87;;
22129;SDS011;11231;50.746;4.272;2024-01-15T11:44:29;11.53;;;2.40;;
22129;SDS011;11231;50.746;4.272;2024-01-15T11:46:59;10.97;;;3.40;;
22129;SDS011;11231;50.746;4.272;2024-01-15T11:52:12;10.13;;;2.00;;
22129;SDS011;11231;50.746;4.272;2024-01-15T11:54:45;12.07;;;1.50;;
22129;SDS011;11231;50.746;4.272;2024-01-15T11:57:34;7.67;;;1.17;;
22129;SDS011;11231;50.746;4.272;2024-01-15T12:00:05;8.63;;;1.50;;
22129;SDS011;11231;50.746;4.272;2024-01-15T12:02:40;7.53;;;1.40;;
22129;SDS011;11231;50.746;4.272;2024-01-15T12:05:14;13.40;;;1.60;;
22129;SDS011;11231;50.746;4.272;2024-01-15T12:07:41;7.90;;;1.50;;
22129;SDS011;11231;50.746;4.272;2024-01-15T12:10:12;7.30;;;1.70;;
22129;SDS011;11231;50.746;4.272;2024-01-15T12:15:23;7.57;;;1.53;;
22129;SDS011;11231;50.746;4.272;2024-01-15T12:17:51;6.47;;;1.10;;
22129;SDS011;11231;50.746;4.272;2024-01-15T12:20:17;10.17;;;1.70;;
22129;SDS011;11231;50.746;4.272;2024-01-15T12:22:43;9.43;;;1.47;;
22129;SDS011;11231;50.746;4.272;2024-01-15T12:25:10;6.50;;;1.50;;
22129;SDS011;11231;50.746;4.272;2024-01-15T12:27:35;6.70;;;1.53;;
22129;SDS011;11231;50.746;4.272;2024-01-15T12:30:01;6.17;;;1.40;;
22129;SDS011;11231;50.746;4.272;2024-01-15T12:32:28;11.40;;;1.60;;
22129;SDS011;11231;50.746;4.272;2024-01-15T12:34:54;6.70;;;1.00;;
22129;SDS011;11231;50.746;4.272;2024-01-15T12:37:20;7.93;;;1.40;;
22129;SDS011;11231;50.746;4.272;2024-01-15T12:39:47;14.87;;;3.47;;
22129;SDS011;11231;50.746;4.272;2024-01-15T12:42:14;11.90;;;2.57;;
22129;SDS011;11231;50.746;4.272;2024-01-15T12:44:42;10.20;;;1.60;;
22129;SDS011;11231;50.746;4.272;2024-01-15T12:47:08;8.47;;;1.87;;
22129;SDS011;11231;50.746;4.272;2024-01-15T12:49:36;8.70;;;1.60;;
22129;SDS011;11231;50.746;4.272;2024-01-15T12:52:02;10.73;;;1.90;;
22129;SDS011;11231;50.746;4.272;2024-01-15T12:54:30;8.50;;;1.40;;
22129;SDS011;11231;50.746;4.272;2024-01-15T12:56:55;15.07;;;2.57;;
22129;SDS011;11231;50.746;4.272;2024-01-15T12:59:21;8.93;;;2.20;;
22129;SDS011;11231;50.746;4.272;2024-01-15T13:01:46;10.00;;;2.17;;
22129;SDS011;11231;50.746;4.272;2024-01-15T13:04:21;6.57;;;1.60;;
22129;SDS011;11231;50.746;4.272;2024-01-15T13:06:49;9.03;;;1.43;;
22129;SDS011;11231;50.746;4.272;2024-01-15T13:09:18;9.10;;;1.50;;
22129;SDS011;11231;50.746;4.272;2024-01-15T13:11:45;8.67;;;1.40;;
22129;SDS011;11231;50.746;4.272;2024-01-15T13:14:11;15.07;;;1.77;;
22129;SDS011;11231;50.746;4.272;2024-01-15T13:16:41;9.27;;;1.50;;
22129;SDS011;11231;50.746;4.272;2024-01-15T13:19:10;8.23;;;1.90;;
22129;SDS011;11231;50.746;4.272;2024-01-15T13:21:38;6.17;;;1.10;;
22129;SDS011;11231;50.746;4.272;2024-01-15T13:24:05;6.57;;;1.50;;
22129;SDS011;11231;50.746;4.272;2024-01-15T13:26:35;9.13;;;1.70;;
22129;SDS011;11231;50.746;4.272;2024-01-15T13:29:04;7.80;;;1.67;;
22129;SDS011;11231;50.746;4.272;2024-01-15T13:31:30;9.77;;;1.67;;
22129;SDS011;11231;50.746;4.272;2024-01-15T13:33:56;7.43;;;1.60;;
22129;SDS011;11231;50.746;4.272;2024-01-15T13:36:24;11.47;;;1.93;;
22129;SDS011;11231;50.746;4.272;2024-01-15T13:38:50;12.30;;;1.80;;
22129;SDS011;11231;50.746;4.272;2024-01-15T13:41:17;10.30;;;1.93;;
22129;SDS011;11231;50.746;4.272;2024-01-15T13:43:53;10.10;;;2.70;;
22129;SDS011;11231;50.746;4.272;2024-01-15T13:46:20;8.93;;;1.47;;
22129;SDS011;11231;50.746;4.272;2024-01-15T13:48:49;11.50;;;2.43;;
22129;SDS011;11231;50.746;4.272;2024-01-15T13:51:15;10.17;;;1.40;;
22129;SDS011;11231;50.746;4.272;2024-01-15T13:53:41;8.93;;;1.60;;
22129;SDS011;11231;50.746;4.272;2024-01-15T13:56:06;13.30;;;1.93;;
22129;SDS011;11231;50.746;4.272;2024-01-15T13:58:33;7.30;;;1.30;;
22129;SDS011;11231;50.746;4.272;2024-01-15T14:01:01;10.23;;;1.53;;
22129;SDS011;11231;50.746;4.272;2024-01-15T14:03:29;10.67;;;1.60;;
22129;SDS011;11231;50.746;4.272;2024-01-15T14:05:55;7.70;;;1.43;;
22129;SDS011;11231;50.746;4.272;2024-01-15T14:08:20;13.77;;;1.83;;
22129;SDS011;11231;50.746;4.272;2024-01-15T14:10:47;10.33;;;1.87;;
22129;SDS011;11231;50.746;4.272;2024-01-15T14:13:12;11.80;;;2.30;;
22129;SDS011;11231;50.746;4.272;2024-01-15T14:15:38;16.43;;;2.23;;
22129;SDS011;11231;50.746;4.272;2024-01-15T14:18:05;10.30;;;2.00;;
22129;SDS011;11231;50.746;4.272;2024-01-15T14:20:30;13.63;;;2.60;;
22129;SDS011;11231;50.746;4.272;2024-01-15T14:22:56;17.73;;;4.83;;
22129;SDS011;11231;50.746;4.272;2024-01-15T14:25:22;25.00;;;6.87;;
22129;SDS011;11231;50.746;4.272;2024-01-15T14:27:49;27.97;;;10.87;;
22129;SDS011;11231;50.746;4.272;2024-01-15T14:30:16;15.20;;;4.83;;
22129;SDS011;11231;50.746;4.272;2024-01-15T14:32:42;15.23;;;4.13;;
22129;SDS011;11231;50.746;4.272;2024-01-15T14:35:09;13.53;;;3.80;;
22129;SDS011;11231;50.746;4.272;2024-01-15T14:37:36;15.20;;;2.70;;
22129;SDS011;11231;50.746;4.272;2024-01-15T14:40:03;14.93;;;4.93;;
22129;SDS011;11231;50.746;4.272;2024-01-15T14:42:30;16.60;;;4.70;;
22129;SDS011;11231;50.746;4.272;2024-01-15T14:44:56;12.80;;;3.50;;
22129;SDS011;11231;50.746;4.272;2024-01-15T14:47:22;14.27;;;6.53;;
22129;SDS011;11231;50.746;4.272;2024-01-15T14:49:49;14.27;;;3.70;;
22129;SDS011;11231;50.746;4.272;2024-01-15T14:52:15;15.20;;;2.33;;